createdAt,value
2018-05-26T00:00:15.897Z,21.7
2018-05-26T00:01:06.798Z,21.7
2018-05-26T00:01:56.880Z,21.7
2018-05-26T00:02:47.474Z,21.7
2018-05-26T00:03:36.956Z,21.7
2018-05-26T00:04:27.313Z,21.7
2018-05-26T00:05:17.147Z,21.7
2018-05-26T00:06:07.460Z,21.7
2018-05-26T00:06:57.214Z,21.7
2018-05-26T00:07:47.339Z,21.7
2018-05-26T00:08:37.346Z,21.7
2018-05-26T00:09:27.533Z,21.7
2018-05-26T00:10:17.594Z,21.7
2018-05-26T00:11:07.832Z,21.7
2018-05-26T00:11:58.153Z,21.7
2018-05-26T00:12:48.239Z,21.7
2018-05-26T00:13:38.013Z,21.7
2018-05-26T00:14:27.565Z,21.7
2018-05-26T00:15:18.486Z,21.7
2018-05-26T00:16:08.209Z,21.7
2018-05-26T00:16:58.321Z,21.7
2018-05-26T00:17:48.412Z,21.7
2018-05-26T00:18:38.714Z,21.7
2018-05-26T00:19:28.499Z,21.7
2018-05-26T00:20:18.264Z,21.7
2018-05-26T00:21:08.608Z,21.7
2018-05-26T00:21:58.651Z,21.7
2018-05-26T00:22:49.029Z,21.7
2018-05-26T00:23:38.222Z,21.7
2018-05-26T00:24:28.936Z,21.7
2018-05-26T00:25:19.194Z,21.7
2018-05-26T00:26:08.983Z,21.7
2018-05-26T00:26:58.844Z,21.7
2018-05-26T00:27:49.103Z,21.7
2018-05-26T00:28:39.146Z,21.7
2018-05-26T00:29:29.612Z,21.7
2018-05-26T00:30:18.985Z,21.8
2018-05-26T00:31:08.788Z,21.7
2018-05-26T00:31:58.588Z,21.7
2018-05-26T00:32:49.486Z,21.7
2018-05-26T00:33:38.999Z,21.7
2018-05-26T00:34:29.356Z,21.7
2018-05-26T00:35:19.088Z,21.7
2018-05-26T00:36:09.466Z,21.7
2018-05-26T00:36:59.506Z,21.7
2018-05-26T00:37:49.770Z,21.7
2018-05-26T00:38:39.636Z,21.7
2018-05-26T00:39:30.038Z,21.7
2018-05-26T00:40:20.049Z,21.7
2018-05-26T00:41:09.861Z,21.7
2018-05-26T00:41:59.643Z,21.7
2018-05-26T00:42:49.957Z,21.7
2018-05-26T00:43:40.581Z,21.7
2018-05-26T00:44:30.464Z,21.7
2018-05-26T00:45:20.447Z,21.7
2018-05-26T00:46:10.777Z,21.7
2018-05-26T00:47:00.319Z,21.7
2018-05-26T00:47:50.654Z,21.7
2018-05-26T00:48:40.135Z,21.7
2018-05-26T00:49:31.105Z,21.7
2018-05-26T00:50:20.568Z,21.7
2018-05-26T00:51:10.342Z,21.7
2018-05-26T00:52:00.413Z,21.7
2018-05-26T00:52:51.092Z,21.7
2018-05-26T00:53:40.227Z,21.7
2018-05-26T00:54:30.410Z,21.7
2018-05-26T00:55:21.541Z,21.7
2018-05-26T00:56:10.721Z,21.7
2018-05-26T00:57:00.521Z,21.7
2018-05-26T00:57:51.418Z,21.7
2018-05-26T00:58:40.617Z,21.7
2018-05-26T00:59:31.349Z,21.7
2018-05-26T01:00:21.588Z,21.7
2018-05-26T01:01:11.389Z,21.7
2018-05-26T01:02:01.437Z,21.7
2018-05-26T01:02:51.511Z,21.7
2018-05-26T01:03:41.603Z,21.7
2018-05-26T01:04:31.775Z,21.7
2018-05-26T01:05:22.000Z,21.7
2018-05-26T01:06:11.790Z,21.7
2018-05-26T01:07:01.277Z,21.7
2018-05-26T01:07:52.480Z,21.7
2018-05-26T01:08:41.958Z,21.7
2018-05-26T01:09:31.480Z,21.7
2018-05-26T01:10:22.063Z,21.7
2018-05-26T01:11:12.140Z,21.7
2018-05-26T01:12:02.268Z,21.7
2018-05-26T01:12:52.575Z,21.7
2018-05-26T01:13:42.384Z,21.7
2018-05-26T01:14:32.952Z,21.7
2018-05-26T01:15:23.027Z,21.7
2018-05-26T01:16:13.140Z,21.7
2018-05-26T01:17:03.155Z,21.7
2018-05-26T01:17:52.983Z,21.7
2018-05-26T01:18:42.454Z,21.7
2018-05-26T01:19:33.360Z,21.7
2018-05-26T01:20:23.389Z,21.7
2018-05-26T01:21:13.203Z,21.7
2018-05-26T01:22:03.297Z,21.7
2018-05-26T01:22:53.286Z,21.7
2018-05-26T01:23:43.654Z,21.7
2018-05-26T01:24:32.940Z,21.7
2018-05-26T01:25:22.713Z,21.7
2018-05-26T01:26:13.800Z,21.7
2018-05-26T01:27:03.706Z,21.7
2018-05-26T01:27:54.041Z,21.7
2018-05-26T01:28:44.051Z,21.7
2018-05-26T01:29:34.090Z,21.7
2018-05-26T01:30:24.190Z,21.7
2018-05-26T01:31:13.947Z,21.7
2018-05-26T01:32:04.083Z,21.7
2018-05-26T01:32:53.538Z,21.7
2018-05-26T01:33:44.130Z,21.7
2018-05-26T01:34:34.518Z,21.7
2018-05-26T01:35:23.749Z,21.7
2018-05-26T01:36:14.343Z,21.7
2018-05-26T01:37:04.405Z,21.7
2018-05-26T01:37:54.445Z,21.7
2018-05-26T01:38:44.590Z,21.7
2018-05-26T01:39:34.895Z,21.7
2018-05-26T01:40:24.121Z,21.7
2018-05-26T01:41:14.739Z,21.7
2018-05-26T01:42:04.230Z,21.7
2018-05-26T01:42:54.308Z,21.7
2018-05-26T01:43:44.929Z,21.7
2018-05-26T01:44:34.972Z,21.7
2018-05-26T01:45:24.793Z,21.7
2018-05-26T01:46:15.377Z,21.7
2018-05-26T01:47:05.241Z,21.7
2018-05-26T01:47:55.531Z,21.7
2018-05-26T01:48:45.568Z,21.7
2018-05-26T01:49:35.082Z,21.7
2018-05-26T01:50:25.421Z,21.7
2018-05-26T01:51:15.502Z,21.7
2018-05-26T01:52:05.317Z,21.7
2018-05-26T01:52:55.914Z,21.7
2018-05-26T01:53:44.891Z,21.7
2018-05-26T01:54:35.211Z,21.7
2018-05-26T01:55:25.529Z,21.7
2018-05-26T01:56:15.906Z,21.7
2018-05-26T01:57:05.924Z,21.7
2018-05-26T01:57:56.311Z,21.7
2018-05-26T01:58:45.509Z,21.7
2018-05-26T01:59:35.539Z,21.7
2018-05-26T02:00:25.928Z,21.7
2018-05-26T02:01:16.546Z,21.7
2018-05-26T02:02:06.616Z,21.7
2018-05-26T02:02:56.363Z,21.7
2018-05-26T02:03:46.721Z,21.7
2018-05-26T02:04:36.559Z,21.7
2018-05-26T02:05:26.323Z,21.7
2018-05-26T02:06:16.669Z,21.7
2018-05-26T02:07:06.728Z,21.7
2018-05-26T02:07:56.495Z,21.7
2018-05-26T02:08:46.561Z,21.7
2018-05-26T02:09:36.389Z,21.7
2018-05-26T02:10:26.421Z,21.7
2018-05-26T02:11:17.356Z,21.7
2018-05-26T02:12:06.113Z,21.7
2018-05-26T02:12:57.145Z,21.7
2018-05-26T02:13:47.547Z,21.7
2018-05-26T02:14:37.311Z,21.7
2018-05-26T02:15:27.175Z,21.7
2018-05-26T02:16:17.436Z,21.7
2018-05-26T02:17:06.733Z,21.7
2018-05-26T02:17:57.379Z,21.7
2018-05-26T02:18:46.600Z,21.7
2018-05-26T02:19:36.687Z,21.7
2018-05-26T02:20:28.044Z,21.7
2018-05-26T02:21:17.040Z,21.7
2018-05-26T02:22:07.586Z,21.7
2018-05-26T02:22:57.516Z,21.7
2018-05-26T02:23:47.813Z,21.7
2018-05-26T02:24:37.623Z,21.7
2018-05-26T02:25:27.646Z,21.7
2018-05-26T02:26:17.985Z,21.7
2018-05-26T02:27:08.093Z,21.7
2018-05-26T02:27:57.543Z,21.7
2018-05-26T02:28:47.918Z,21.7
2018-05-26T02:29:38.015Z,21.7
2018-05-26T02:30:27.680Z,21.7
2018-05-26T02:31:17.565Z,21.7
2018-05-26T02:32:08.110Z,21.7
2018-05-26T02:32:57.959Z,21.7
2018-05-26T02:33:48.805Z,21.7
2018-05-26T02:34:38.099Z,21.7
2018-05-26T02:35:28.385Z,21.7
2018-05-26T02:36:18.792Z,21.7
2018-05-26T02:37:08.253Z,21.7
2018-05-26T02:37:58.609Z,21.7
2018-05-26T02:38:48.710Z,21.7
2018-05-26T02:39:38.370Z,21.7
2018-05-26T02:40:29.405Z,21.7
2018-05-26T02:41:19.363Z,21.7
2018-05-26T02:42:09.335Z,21.7
2018-05-26T02:42:58.169Z,21.7
2018-05-26T02:43:49.905Z,21.7
2018-05-26T02:44:39.630Z,21.7
2018-05-26T02:45:28.264Z,21.7
2018-05-26T02:46:20.037Z,21.7
2018-05-26T02:47:09.903Z,21.7
2018-05-26T02:47:59.300Z,21.7
2018-05-26T02:48:49.423Z,21.7
2018-05-26T02:49:40.310Z,21.7
2018-05-26T02:50:30.076Z,21.7
2018-05-26T02:51:19.912Z,21.7
2018-05-26T02:52:10.514Z,21.7
2018-05-26T02:52:59.957Z,21.7
2018-05-26T02:53:49.466Z,21.7
2018-05-26T02:54:40.166Z,21.7
2018-05-26T02:55:29.907Z,21.7
2018-05-26T02:56:18.792Z,21.7
2018-05-26T02:57:10.931Z,21.7
2018-05-26T02:58:00.358Z,21.7
2018-05-26T02:58:50.159Z,21.7
2018-05-26T02:59:40.462Z,21.7
2018-05-26T03:00:30.814Z,21.7
2018-05-26T03:01:20.921Z,21.7
2018-05-26T03:02:11.265Z,21.7
2018-05-26T03:03:00.733Z,21.7
2018-05-26T03:03:51.411Z,21.7
2018-05-26T03:04:41.148Z,21.7
2018-05-26T03:05:31.228Z,21.7
2018-05-26T03:06:20.710Z,21.7
2018-05-26T03:07:10.745Z,21.6
2018-05-26T03:08:01.418Z,21.7
2018-05-26T03:08:50.629Z,21.7
2018-05-26T03:09:41.517Z,21.7
2018-05-26T03:10:31.644Z,21.7
2018-05-26T03:11:21.964Z,21.6
2018-05-26T03:12:11.451Z,21.7
2018-05-26T03:13:01.788Z,21.7
2018-05-26T03:13:51.292Z,21.7
2018-05-26T03:14:42.190Z,21.7
2018-05-26T03:15:31.365Z,21.6
2018-05-26T03:16:22.039Z,21.7
2018-05-26T03:17:12.120Z,21.7
2018-05-26T03:18:02.127Z,21.6
2018-05-26T03:18:52.272Z,21.6
2018-05-26T03:19:42.304Z,21.7
2018-05-26T03:20:32.075Z,21.6
2018-05-26T03:21:22.387Z,21.7
2018-05-26T03:22:12.470Z,21.7
2018-05-26T03:23:02.276Z,21.7
2018-05-26T03:23:52.588Z,21.7
2018-05-26T03:24:42.684Z,21.7
2018-05-26T03:25:32.257Z,21.7
2018-05-26T03:26:22.568Z,21.7
2018-05-26T03:27:13.142Z,21.6
2018-05-26T03:28:02.926Z,21.7
2018-05-26T03:28:52.969Z,21.7
2018-05-26T03:29:43.036Z,21.7
2018-05-26T03:30:32.984Z,21.7
2018-05-26T03:31:22.769Z,21.6
2018-05-26T03:32:13.562Z,21.7
2018-05-26T03:33:02.520Z,21.6
2018-05-26T03:33:52.616Z,21.7
2018-05-26T03:34:42.946Z,21.6
2018-05-26T03:35:32.978Z,21.6
2018-05-26T03:36:24.094Z,21.7
2018-05-26T03:37:12.585Z,21.7
2018-05-26T03:38:03.234Z,21.6
2018-05-26T03:38:53.783Z,21.7
2018-05-26T03:39:42.499Z,21.7
2018-05-26T03:40:34.190Z,21.7
2018-05-26T03:41:23.132Z,21.6
2018-05-26T03:42:14.007Z,21.7
2018-05-26T03:43:04.113Z,21.6
2018-05-26T03:43:54.142Z,21.7
2018-05-26T03:44:44.169Z,21.7
2018-05-26T03:45:33.997Z,21.7
2018-05-26T03:46:23.499Z,21.7
2018-05-26T03:47:14.101Z,21.7
2018-05-26T03:48:04.472Z,21.6
2018-05-26T03:48:53.976Z,21.7
2018-05-26T03:49:44.102Z,21.7
2018-05-26T03:50:34.672Z,21.6
2018-05-26T03:51:23.875Z,21.7
2018-05-26T03:52:14.792Z,21.7
2018-05-26T03:53:04.270Z,21.6
2018-05-26T03:53:54.621Z,21.7
2018-05-26T03:54:44.929Z,21.6
2018-05-26T03:55:35.315Z,21.7
2018-05-26T03:56:25.380Z,21.6
2018-05-26T03:57:14.932Z,21.6
2018-05-26T03:58:05.208Z,21.7
2018-05-26T03:58:55.588Z,21.6
2018-05-26T03:59:45.652Z,21.6
2018-05-26T04:00:35.657Z,21.6
2018-05-26T04:01:25.743Z,21.6
2018-05-26T04:02:15.800Z,21.6
2018-05-26T04:03:05.026Z,21.7
2018-05-26T04:03:55.375Z,21.6
2018-05-26T04:04:45.997Z,21.6
2018-05-26T04:05:35.750Z,21.7
2018-05-26T04:06:25.877Z,21.7
2018-05-26T04:07:15.607Z,21.6
2018-05-26T04:08:05.989Z,21.7
2018-05-26T04:08:56.035Z,21.7
2018-05-26T04:09:45.405Z,21.6
2018-05-26T04:10:35.591Z,21.6
2018-05-26T04:11:27.184Z,21.6
2018-05-26T04:12:16.565Z,21.6
2018-05-26T04:13:06.125Z,21.7
2018-05-26T04:13:56.145Z,21.6
2018-05-26T04:14:46.480Z,21.6
2018-05-26T04:15:36.866Z,21.6
2018-05-26T04:16:26.914Z,21.6
2018-05-26T04:17:16.987Z,21.6
2018-05-26T04:18:05.907Z,21.6
2018-05-26T04:18:55.998Z,21.7
2018-05-26T04:19:46.626Z,21.6
2018-05-26T04:20:37.221Z,21.6
2018-05-26T04:21:27.014Z,21.7
2018-05-26T04:22:16.784Z,21.6
2018-05-26T04:23:06.866Z,21.6
2018-05-26T04:23:57.489Z,21.7
2018-05-26T04:24:47.248Z,21.6
2018-05-26T04:25:37.615Z,21.7
2018-05-26T04:26:27.396Z,21.6
2018-05-26T04:27:17.410Z,21.7
2018-05-26T04:28:07.591Z,21.6
2018-05-26T04:28:57.567Z,21.6
2018-05-26T04:29:47.381Z,21.6
2018-05-26T04:30:37.974Z,21.6
2018-05-26T04:31:27.496Z,21.6
2018-05-26T04:32:17.852Z,21.6
2018-05-26T04:33:07.375Z,21.6
2018-05-26T04:33:57.124Z,21.6
2018-05-26T04:34:47.741Z,21.7
2018-05-26T04:35:38.226Z,21.7
2018-05-26T04:36:27.862Z,21.6
2018-05-26T04:37:18.529Z,21.6
2018-05-26T04:38:08.320Z,21.6
2018-05-26T04:38:56.686Z,21.7
2018-05-26T04:39:47.858Z,21.7
2018-05-26T04:40:38.195Z,21.7
2018-05-26T04:41:28.628Z,21.7
2018-05-26T04:42:18.151Z,21.8
2018-05-26T04:43:07.871Z,21.7
2018-05-26T04:43:58.546Z,21.8
2018-05-26T04:44:48.529Z,21.8
2018-05-26T04:45:39.132Z,21.8
2018-05-26T04:46:28.963Z,21.8
2018-05-26T04:47:19.272Z,21.8
2018-05-26T04:48:09.352Z,21.8
2018-05-26T04:48:59.135Z,21.8
2018-05-26T04:49:48.342Z,21.8
2018-05-26T04:50:39.499Z,21.8
2018-05-26T04:51:29.591Z,21.8
2018-05-26T04:52:19.352Z,21.8
2018-05-26T04:53:09.170Z,21.8
2018-05-26T04:53:59.807Z,21.8
2018-05-26T04:54:49.817Z,21.8
2018-05-26T04:55:39.680Z,21.8
2018-05-26T04:56:29.936Z,21.8
2018-05-26T04:57:20.037Z,21.8
2018-05-26T04:58:10.099Z,21.8
2018-05-26T04:58:59.288Z,21.8
2018-05-26T04:59:49.661Z,21.8
2018-05-26T05:00:40.018Z,21.8
2018-05-26T05:01:30.108Z,21.8
2018-05-26T05:02:20.419Z,21.8
2018-05-26T05:03:09.111Z,21.8
2018-05-26T05:04:00.268Z,21.8
2018-05-26T05:04:50.341Z,21.8
2018-05-26T05:05:40.057Z,21.8
2018-05-26T05:06:30.766Z,21.8
2018-05-26T05:07:20.279Z,21.8
2018-05-26T05:08:10.597Z,21.8
2018-05-26T05:09:00.382Z,21.8
2018-05-26T05:09:50.722Z,21.8
2018-05-26T05:10:40.070Z,21.9
2018-05-26T05:11:30.369Z,21.8
2018-05-26T05:12:20.737Z,21.8
2018-05-26T05:13:09.681Z,21.8
2018-05-26T05:13:59.704Z,21.9
2018-05-26T05:14:50.667Z,21.9
2018-05-26T05:15:40.706Z,21.9
2018-05-26T05:16:30.201Z,21.9
2018-05-26T05:17:20.856Z,21.9
2018-05-26T05:18:10.896Z,21.9
2018-05-26T05:19:00.876Z,21.9
2018-05-26T05:19:51.803Z,21.9
2018-05-26T05:20:41.812Z,21.9
2018-05-26T05:21:30.769Z,21.9
2018-05-26T05:22:21.971Z,21.9
2018-05-26T05:23:12.026Z,21.9
2018-05-26T05:24:01.508Z,21.9
2018-05-26T05:24:51.614Z,21.9
2018-05-26T05:25:42.268Z,21.9
2018-05-26T05:26:32.033Z,21.9
2018-05-26T05:27:22.359Z,21.9
2018-05-26T05:28:12.155Z,21.9
2018-05-26T05:29:02.491Z,21.9
2018-05-26T05:29:52.375Z,21.9
2018-05-26T05:30:42.077Z,21.9
2018-05-26T05:31:32.102Z,21.9
2018-05-26T05:32:22.208Z,21.9
2018-05-26T05:33:11.998Z,21.9
2018-05-26T05:34:02.303Z,21.9
2018-05-26T05:34:52.958Z,21.9
2018-05-26T05:35:42.744Z,21.9
2018-05-26T05:36:32.790Z,21.9
2018-05-26T05:37:22.557Z,21.9
2018-05-26T05:38:13.227Z,21.9
2018-05-26T05:39:02.748Z,21.9
2018-05-26T05:39:52.472Z,21.9
2018-05-26T05:40:42.796Z,21.9
2018-05-26T05:41:32.920Z,21.9
2018-05-26T05:42:22.990Z,21.9
2018-05-26T05:43:12.760Z,21.9
2018-05-26T05:44:03.669Z,21.9
2018-05-26T05:44:52.860Z,21.9
2018-05-26T05:45:43.788Z,21.9
2018-05-26T05:46:33.822Z,21.9
2018-05-26T05:47:23.372Z,21.9
2018-05-26T05:48:13.104Z,21.9
2018-05-26T05:49:03.522Z,21.9
2018-05-26T05:49:53.004Z,21.9
2018-05-26T05:50:43.894Z,21.9
2018-05-26T05:51:33.691Z,21.9
2018-05-26T05:52:24.307Z,21.9
2018-05-26T05:53:13.814Z,21.9
2018-05-26T05:54:04.187Z,21.9
2018-05-26T05:54:54.485Z,21.9
2018-05-26T05:55:44.267Z,21.9
2018-05-26T05:56:35.047Z,21.9
2018-05-26T05:57:24.115Z,21.9
2018-05-26T05:58:14.485Z,21.9
2018-05-26T05:59:04.692Z,21.9
2018-05-26T05:59:54.853Z,22
2018-05-26T06:00:44.972Z,22
2018-05-26T06:01:34.147Z,22
2018-05-26T06:02:24.488Z,21.9
2018-05-26T06:03:14.288Z,22
2018-05-26T06:04:05.198Z,22
2018-05-26T06:04:54.683Z,22
2018-05-26T06:05:45.288Z,22
2018-05-26T06:06:34.259Z,22
2018-05-26T06:07:24.960Z,22
2018-05-26T06:08:15.192Z,22
2018-05-26T06:09:05.023Z,22
2018-05-26T06:09:55.674Z,22
2018-05-26T06:10:45.127Z,22
2018-05-26T06:11:35.217Z,22
2018-05-26T06:12:24.699Z,22
2018-05-26T06:13:15.904Z,22
2018-05-26T06:14:05.482Z,22
2018-05-26T06:14:56.191Z,22
2018-05-26T06:15:45.552Z,22
2018-05-26T06:16:35.863Z,22
2018-05-26T06:17:25.909Z,22
2018-05-26T06:18:15.985Z,22
2018-05-26T06:19:06.091Z,22
2018-05-26T06:19:56.443Z,22
2018-05-26T06:20:46.501Z,22
2018-05-26T06:21:35.950Z,22
2018-05-26T06:22:26.055Z,22
2018-05-26T06:23:16.669Z,22
2018-05-26T06:24:05.863Z,22
2018-05-26T06:24:56.254Z,22
2018-05-26T06:25:46.839Z,22
2018-05-26T06:26:36.740Z,22
2018-05-26T06:27:26.437Z,22
2018-05-26T06:28:16.468Z,22
2018-05-26T06:29:06.546Z,22
2018-05-26T06:29:57.185Z,22
2018-05-26T06:30:47.225Z,22
2018-05-26T06:31:37.269Z,22
2018-05-26T06:32:26.539Z,22
2018-05-26T06:33:17.402Z,22
2018-05-26T06:34:06.984Z,22
2018-05-26T06:34:57.293Z,22
2018-05-26T06:35:47.349Z,22
2018-05-26T06:36:37.118Z,22
2018-05-26T06:37:27.740Z,22.1
2018-05-26T06:38:17.607Z,22.1
2018-05-26T06:39:07.594Z,22.1
2018-05-26T06:39:59.559Z,22.1
2018-05-26T06:40:49.393Z,22.1
2018-05-26T06:41:39.471Z,22.1
2018-05-26T06:42:28.642Z,22.1
2018-05-26T06:43:19.927Z,22.1
2018-05-26T06:44:08.642Z,22.1
2018-05-26T06:44:58.888Z,22.1
2018-05-26T06:45:50.297Z,22.1
2018-05-26T06:46:40.125Z,22.1
2018-05-26T06:47:29.906Z,22.1
2018-05-26T06:48:19.762Z,22.1
2018-05-26T06:49:09.766Z,22.1
2018-05-26T06:49:59.203Z,22.1
2018-05-26T06:50:50.944Z,22.1
2018-05-26T06:51:40.227Z,22.1
2018-05-26T06:52:30.546Z,22.1
2018-05-26T06:53:20.378Z,22.1
2018-05-26T06:54:10.469Z,22.1
2018-05-26T06:55:00.278Z,22.1
2018-05-26T06:55:50.561Z,22.1
2018-05-26T06:56:40.376Z,22.1
2018-05-26T06:57:31.228Z,22.1
2018-05-26T06:58:20.736Z,22.1
2018-05-26T06:59:10.525Z,22.1
2018-05-26T07:00:00.614Z,22.1
2018-05-26T07:00:51.231Z,22.1
2018-05-26T07:01:40.961Z,22.1
2018-05-26T07:02:31.312Z,22.1
2018-05-26T07:03:20.819Z,22.1
2018-05-26T07:04:11.264Z,22.1
2018-05-26T07:05:00.753Z,22.1
2018-05-26T07:05:51.061Z,22.1
2018-05-26T07:06:42.033Z,22.1
2018-05-26T07:07:30.611Z,22.1
2018-05-26T07:08:21.825Z,22.1
2018-05-26T07:09:11.305Z,22.1
2018-05-26T07:10:01.921Z,22.1
2018-05-26T07:10:51.172Z,22.1
2018-05-26T07:11:41.892Z,22.1
2018-05-26T07:12:31.651Z,22.1
2018-05-26T07:13:21.608Z,22.1
2018-05-26T07:14:11.413Z,22.1
2018-05-26T07:15:01.509Z,22.1
2018-05-26T07:15:51.772Z,22.1
2018-05-26T07:16:42.450Z,22.1
2018-05-26T07:17:32.484Z,22.1
2018-05-26T07:18:22.039Z,22.1
2018-05-26T07:19:12.351Z,22.1
2018-05-26T07:20:01.567Z,22.1
2018-05-26T07:20:52.520Z,22.1
2018-05-26T07:21:42.828Z,22.1
2018-05-26T07:22:32.607Z,22.1
2018-05-26T07:23:22.381Z,22.1
2018-05-26T07:24:13.269Z,22.1
2018-05-26T07:25:03.126Z,22.1
2018-05-26T07:25:52.877Z,22.1
2018-05-26T07:26:42.369Z,22.1
2018-05-26T07:27:32.253Z,22.1
2018-05-26T07:28:23.080Z,22.1
2018-05-26T07:29:12.820Z,22.1
2018-05-26T07:30:03.714Z,22.1
2018-05-26T07:30:53.810Z,22.1
2018-05-26T07:31:43.644Z,22.1
2018-05-26T07:32:33.664Z,22.1
2018-05-26T07:33:23.449Z,22.1
2018-05-26T07:34:13.484Z,22.1
2018-05-26T07:35:03.576Z,22.1
2018-05-26T07:35:53.916Z,22.1
2018-05-26T07:36:44.276Z,22.1
2018-05-26T07:37:33.926Z,22.1
2018-05-26T07:38:24.128Z,22.1
2018-05-26T07:39:13.698Z,22.1
2018-05-26T07:40:04.286Z,22.1
2018-05-26T07:40:54.556Z,22.1
2018-05-26T07:41:44.377Z,22.1
2018-05-26T07:42:34.428Z,22.1
2018-05-26T07:43:23.606Z,22.1
2018-05-26T07:44:13.870Z,22.1
2018-05-26T07:45:04.881Z,22.1
2018-05-26T07:45:54.661Z,22.1
2018-05-26T07:46:43.905Z,22.1
2018-05-26T07:47:34.320Z,22.1
2018-05-26T07:48:24.597Z,22.1
2018-05-26T07:49:14.932Z,22.1
2018-05-26T07:50:05.303Z,22.1
2018-05-26T07:50:54.285Z,22.1
2018-05-26T07:51:45.161Z,22.1
2018-05-26T07:52:35.229Z,22.1
2018-05-26T07:53:25.311Z,22.1
2018-05-26T07:54:14.917Z,22.1
2018-05-26T07:55:05.660Z,22.1
2018-05-26T07:55:55.506Z,22.1
2018-05-26T07:56:45.562Z,22.1
2018-05-26T07:57:35.016Z,22.1
2018-05-26T07:58:26.708Z,22.1
2018-05-26T07:59:15.501Z,22.1
2018-05-26T08:00:05.356Z,22.1
2018-05-26T08:00:56.050Z,22.1
2018-05-26T08:01:45.599Z,22.1
2018-05-26T08:02:36.311Z,22.1
2018-05-26T08:03:26.041Z,22.1
2018-05-26T08:04:15.546Z,22.1
2018-05-26T08:05:06.445Z,22.1
2018-05-26T08:05:55.916Z,22.1
2018-05-26T08:06:46.311Z,22.1
2018-05-26T08:07:35.810Z,22.1
2018-05-26T08:08:26.139Z,22.1
2018-05-26T08:09:16.511Z,22.1
2018-05-26T08:10:06.347Z,22.1
2018-05-26T08:10:57.681Z,22.1
2018-05-26T08:11:46.475Z,22.1
2018-05-26T08:12:36.768Z,22.1
2018-05-26T08:13:27.072Z,22.1
2018-05-26T08:14:16.866Z,22.1
2018-05-26T08:15:06.993Z,22.1
2018-05-26T08:15:57.264Z,22.1
2018-05-26T08:16:46.565Z,22.1
2018-05-26T08:17:36.790Z,22.1
2018-05-26T08:18:26.663Z,22.1
2018-05-26T08:19:16.773Z,22.1
2018-05-26T08:20:07.341Z,22.1
2018-05-26T08:20:57.143Z,22.1
2018-05-26T08:21:47.185Z,22.1
2018-05-26T08:22:36.703Z,22.1
2018-05-26T08:23:27.322Z,22.1
2018-05-26T08:24:17.263Z,22.1
2018-05-26T08:25:07.186Z,22.1
2018-05-26T08:25:57.563Z,22.1
2018-05-26T08:26:47.338Z,22.1
2018-05-26T08:27:36.801Z,22.1
2018-05-26T08:28:27.183Z,22.1
2018-05-26T08:29:16.935Z,22.1
2018-05-26T08:30:07.594Z,22.1
2018-05-26T08:30:57.950Z,22.1
2018-05-26T08:31:47.690Z,22.1
2018-05-26T08:32:38.371Z,22.1
2018-05-26T08:33:27.273Z,22.1
2018-05-26T08:34:17.880Z,22.1
2018-05-26T08:35:08.287Z,22.1
2018-05-26T08:35:58.837Z,22.1
2018-05-26T08:36:48.356Z,22.1
2018-05-26T08:37:38.440Z,22.2
2018-05-26T08:38:27.967Z,22.2
2018-05-26T08:39:17.455Z,22.1
2018-05-26T08:40:09.203Z,22.1
2018-05-26T08:40:58.384Z,22.2
2018-05-26T08:41:48.757Z,22.1
2018-05-26T08:42:39.117Z,22.1
2018-05-26T08:43:28.978Z,22.2
2018-05-26T08:44:18.756Z,22.1
2018-05-26T08:45:09.309Z,22.1
2018-05-26T08:45:58.868Z,22.2
2018-05-26T08:46:48.634Z,22.1
2018-05-26T08:47:39.186Z,22.1
2018-05-26T08:48:28.965Z,22.2
2018-05-26T08:49:19.351Z,22.1
2018-05-26T08:50:09.147Z,22.2
2018-05-26T08:50:59.482Z,22.1
2018-05-26T08:51:49.905Z,22.2
2018-05-26T08:52:40.175Z,22.2
2018-05-26T08:53:29.674Z,22.1
2018-05-26T08:54:19.730Z,22.2
2018-05-26T08:55:09.793Z,22.1
2018-05-26T08:55:59.840Z,22.2
2018-05-26T08:56:50.478Z,22.2
2018-05-26T08:57:39.128Z,22.2
2018-05-26T08:58:30.036Z,22.2
2018-05-26T08:59:20.130Z,22.2
2018-05-26T09:00:10.758Z,22.2
2018-05-26T09:01:00.836Z,22.2
2018-05-26T09:01:50.615Z,22.2
2018-05-26T09:02:40.060Z,22.2
2018-05-26T09:03:30.161Z,22.2
2018-05-26T09:04:20.265Z,22.2
2018-05-26T09:05:10.291Z,22.2
2018-05-26T09:06:00.092Z,22.2
2018-05-26T09:06:49.955Z,22.2
2018-05-26T09:07:40.770Z,22.2
2018-05-26T09:08:30.845Z,22.2
2018-05-26T09:09:20.886Z,22.2
2018-05-26T09:10:10.395Z,22.2
2018-05-26T09:11:00.746Z,22.2
2018-05-26T09:11:51.133Z,22.2
2018-05-26T09:12:41.203Z,22.2
2018-05-26T09:13:30.395Z,22.2
2018-05-26T09:14:20.733Z,22.2
2018-05-26T09:15:11.625Z,22.2
2018-05-26T09:16:01.985Z,22.2
2018-05-26T09:16:51.491Z,22.2
2018-05-26T09:17:41.377Z,22.2
2018-05-26T09:18:31.624Z,22.2
2018-05-26T09:19:22.240Z,22.2
2018-05-26T09:20:12.258Z,22.2
2018-05-26T09:21:01.811Z,22.2
2018-05-26T09:21:52.401Z,22.2
2018-05-26T09:22:41.190Z,22.2
2018-05-26T09:23:32.513Z,22.2
2018-05-26T09:24:22.383Z,22.2
2018-05-26T09:25:13.620Z,22.2
2018-05-26T09:26:01.805Z,22.2
2018-05-26T09:26:51.710Z,22.2
2018-05-26T09:27:42.328Z,22.2
2018-05-26T09:28:32.676Z,22.2
2018-05-26T09:29:22.733Z,22.2
2018-05-26T09:30:12.719Z,22.2
2018-05-26T09:31:02.868Z,22.2
2018-05-26T09:31:52.446Z,22.2
2018-05-26T09:32:42.959Z,22.2
2018-05-26T09:33:33.055Z,22.2
2018-05-26T09:34:23.405Z,22.2
2018-05-26T09:35:12.899Z,22.2
2018-05-26T09:36:02.978Z,22.3
2018-05-26T09:36:53.639Z,22.2
2018-05-26T09:37:43.155Z,22.2
2018-05-26T09:38:32.945Z,22.2
2018-05-26T09:39:23.267Z,22.2
2018-05-26T09:40:13.906Z,22.2
2018-05-26T09:41:03.124Z,22.2
2018-05-26T09:41:53.771Z,22.2
2018-05-26T09:42:43.770Z,22.2
2018-05-26T09:43:33.592Z,22.2
2018-05-26T09:44:23.679Z,22.2
2018-05-26T09:45:13.969Z,22.2
2018-05-26T09:46:03.486Z,22.2
2018-05-26T09:46:54.371Z,22.2
2018-05-26T09:47:44.485Z,22.2
2018-05-26T09:48:34.229Z,22.2
2018-05-26T09:49:24.044Z,22.2
2018-05-26T09:50:14.087Z,22.2
2018-05-26T09:51:04.427Z,22.2
2018-05-26T09:51:53.926Z,22.2
2018-05-26T09:52:44.538Z,22.2
2018-05-26T09:53:34.344Z,22.3
2018-05-26T09:54:24.722Z,22.2
2018-05-26T09:55:15.053Z,22.3
2018-05-26T09:56:06.000Z,22.3
2018-05-26T09:56:54.644Z,22.3
2018-05-26T09:57:44.659Z,22.2
2018-05-26T09:58:35.037Z,22.2
2018-05-26T09:59:24.542Z,22.2
2018-05-26T10:00:14.604Z,22.2
2018-05-26T10:01:04.983Z,22.3
2018-05-26T10:01:55.067Z,22.3
2018-05-26T10:02:45.063Z,22.2
2018-05-26T10:03:35.112Z,22.3
2018-05-26T10:04:25.333Z,22.2
2018-05-26T10:05:15.538Z,22.3
2018-05-26T10:06:05.060Z,22.3
2018-05-26T10:06:55.480Z,22.3
2018-05-26T10:07:45.483Z,22.2
2018-05-26T10:08:36.135Z,22.2
2018-05-26T10:09:26.132Z,22.2
2018-05-26T10:10:16.316Z,22.3
2018-05-26T10:11:06.093Z,22.3
2018-05-26T10:11:55.875Z,22.3
2018-05-26T10:12:46.245Z,22.2
2018-05-26T10:13:36.878Z,22.3
2018-05-26T10:14:25.717Z,22.3
2018-05-26T10:15:16.095Z,22.3
2018-05-26T10:16:06.118Z,22.2
2018-05-26T10:16:56.206Z,22.3
2018-05-26T10:17:46.252Z,22.3
2018-05-26T10:18:35.507Z,22.3
2018-05-26T10:19:26.097Z,22.3
2018-05-26T10:20:16.193Z,22.3
2018-05-26T10:21:06.809Z,22.2
2018-05-26T10:21:56.624Z,22.3
2018-05-26T10:22:46.351Z,22.3
2018-05-26T10:23:36.433Z,22.3
2018-05-26T10:24:26.559Z,22.3
2018-05-26T10:25:16.530Z,22.3
2018-05-26T10:26:07.168Z,22.2
2018-05-26T10:26:56.762Z,22.3
2018-05-26T10:27:47.029Z,22.3
2018-05-26T10:28:37.416Z,22.3
2018-05-26T10:29:27.148Z,22.3
2018-05-26T10:30:16.896Z,22.3
2018-05-26T10:31:07.033Z,22.3
2018-05-26T10:31:57.852Z,22.3
2018-05-26T10:32:48.171Z,22.3
2018-05-26T10:33:37.800Z,22.3
2018-05-26T10:34:28.219Z,22.3
2018-05-26T10:35:18.184Z,22.3
2018-05-26T10:36:07.742Z,22.3
2018-05-26T10:36:57.755Z,22.3
2018-05-26T10:37:48.537Z,22.3
2018-05-26T10:38:38.384Z,22.3
2018-05-26T10:39:28.444Z,22.3
2018-05-26T10:40:18.308Z,22.3
2018-05-26T10:41:08.048Z,22.3
2018-05-26T10:41:56.773Z,22.3
2018-05-26T10:42:46.246Z,22.3
2018-05-26T10:43:36.864Z,22.3
2018-05-26T10:44:26.962Z,22.3
2018-05-26T10:45:16.714Z,22.3
2018-05-26T10:46:07.072Z,22.3
2018-05-26T10:46:57.129Z,22.3
2018-05-26T10:47:48.887Z,22.3
2018-05-26T10:48:38.694Z,22.3
2018-05-26T10:49:29.013Z,22.3
2018-05-26T10:50:19.026Z,22.3
2018-05-26T10:51:08.826Z,22.3
2018-05-26T10:51:58.913Z,22.3
2018-05-26T10:52:49.237Z,22.3
2018-05-26T10:53:39.309Z,22.3
2018-05-26T10:54:29.696Z,22.3
2018-05-26T10:55:19.718Z,22.3
2018-05-26T10:56:09.504Z,22.3
2018-05-26T10:56:59.839Z,22.3
2018-05-26T10:57:48.784Z,22.3
2018-05-26T10:58:39.169Z,22.3
2018-05-26T10:59:30.080Z,22.3
2018-05-26T11:00:19.641Z,22.3
2018-05-26T11:01:10.212Z,22.3
2018-05-26T11:02:00.267Z,22.3
2018-05-26T11:02:47.848Z,22.3
2018-05-26T11:03:37.612Z,22.3
2018-05-26T11:04:29.058Z,22.3
2018-05-26T11:05:18.587Z,22.3
2018-05-26T11:06:08.675Z,22.3
2018-05-26T11:06:58.500Z,22.3
2018-05-26T11:07:48.515Z,22.3
2018-05-26T11:08:37.416Z,22.3